Warm River, Idaho
Current Conditions -  °F | °C
As of 2:56 PM on Wednesday 22 Oct 2014 (Local Time) from KDIJ Reporting Station
Clear Clear  
Wind Chill: 51°   Ceiling: Unl
Heat Index: 51°   Visibility: 10mi
Dew Point: 26°   Wind: 6mph
Humidity: 38%   Direction: 300°WNW
Pressure: 30.19"   Gusts: NA
Location:  44.0126°N, 111.37°W
Report Text: KDIJ 222056Z AUTO 30005KT 10SM CLR 11/M03 A3019 RMK AO2 58008 T01051033 SLP184
Loading
Personal Weather Stations






























Interactive Weather Map
Tropical Storm Tracking
New forecast layout! Learn more

10-Day Weather Forecast

Advertisements
Track Severe Weather on mobile